Terminal Aerodrome Forecast
Issued by NWS

Home | Current Version | Previous Version | Text Only | Print | Product List | Glossary On
Versions: 1 2 3 4 5 6 7 8 9 10 11 12 13 14 15 16 17 18 19 20 21 22 23 24 25 26 27 28 29
000
FTUS45 KGJT 050528
TAFRIL
TAF
KRIL 050528Z 0506/0606 22003KT P6SM BKN100
     FM051600 29006KT P6SM SCT050 OVC080
     FM052000 24006KT P6SM VCTS SCT070CB BKN110
     FM060000 22012KT 6SM -SHRA OVC080=

USA.gov is the U.S. government's official web portal to all federal, state and local government web resources and services.